createdAt,value
2016-06-15T00:00:52.612Z,0
2016-06-15T00:01:52.663Z,0
2016-06-15T00:02:52.760Z,0
2016-06-15T00:03:52.763Z,0
2016-06-15T00:04:53.234Z,0
2016-06-15T00:05:52.815Z,0
2016-06-15T00:06:52.850Z,0
2016-06-15T00:07:52.884Z,0
2016-06-15T00:08:52.996Z,0
2016-06-15T00:09:53.031Z,0
2016-06-15T00:10:53.035Z,0
2016-06-15T00:11:52.912Z,0
2016-06-15T00:12:53.166Z,0
2016-06-15T00:13:53.183Z,0
2016-06-15T00:14:53.015Z,0
2016-06-15T00:15:53.253Z,0
2016-06-15T00:16:53.271Z,0
2016-06-15T00:17:53.321Z,0
2016-06-15T00:18:53.340Z,0
2016-06-15T00:19:53.718Z,0
2016-06-15T00:20:53.440Z,0
2016-06-15T00:21:53.475Z,0
2016-06-15T00:22:53.539Z,0
2016-06-15T00:23:53.559Z,0
2016-06-15T00:24:53.592Z,0
2016-06-15T00:25:53.643Z,0
2016-06-15T00:26:53.770Z,0
2016-06-15T00:27:53.743Z,0
2016-06-15T00:28:53.760Z,0
2016-06-15T00:29:53.780Z,0
2016-06-15T00:30:53.876Z,0
2016-06-15T00:31:53.895Z,0
2016-06-15T00:32:53.914Z,0
2016-06-15T00:33:54.011Z,0
2016-06-15T00:34:55.170Z,0
2016-06-15T00:35:53.923Z,0
2016-06-15T00:36:54.068Z,0
2016-06-15T00:37:54.163Z,0
2016-06-15T00:38:54.198Z,0
2016-06-15T00:39:54.186Z,0
2016-06-15T00:40:54.236Z,0
2016-06-15T00:41:54.316Z,0
2016-06-15T00:42:54.351Z,0
2016-06-15T00:43:54.386Z,0
2016-06-15T00:44:54.435Z,0
2016-06-15T00:45:54.517Z,0
2016-06-15T00:46:54.363Z,0
2016-06-15T00:47:54.523Z,0
2016-06-15T00:48:54.432Z,0
2016-06-15T00:49:55.200Z,0
2016-06-15T00:50:54.688Z,0
2016-06-15T00:51:54.676Z,0
2016-06-15T00:52:54.788Z,0
2016-06-15T00:53:54.776Z,0
2016-06-15T00:54:54.826Z,0
2016-06-15T00:55:54.891Z,0
2016-06-15T00:56:54.941Z,0
2016-06-15T00:57:54.929Z,0
2016-06-15T00:58:54.994Z,0
2016-06-15T00:59:55.127Z,0
2016-06-15T01:00:55.182Z,0
2016-06-15T01:01:55.252Z,0
2016-06-15T01:02:55.323Z,0
2016-06-15T01:03:55.437Z,0
2016-06-15T01:04:55.422Z,0
2016-06-15T01:05:55.907Z,0
2016-06-15T01:06:55.548Z,0
2016-06-15T01:07:55.423Z,0
2016-06-15T01:08:55.635Z,0
2016-06-15T01:09:55.676Z,0
2016-06-15T01:10:55.745Z,0
2016-06-15T01:11:55.832Z,0
2016-06-15T01:12:55.824Z,0
2016-06-15T01:13:55.845Z,0
2016-06-15T01:14:55.927Z,0
2016-06-15T01:15:55.948Z,0
2016-06-15T01:16:55.984Z,0
2016-06-15T01:17:56.020Z,0
2016-06-15T01:18:56.228Z,0
2016-06-15T01:19:56.512Z,0
2016-06-15T01:20:56.047Z,0
2016-06-15T01:21:56.051Z,0
2016-06-15T01:22:56.274Z,0
2016-06-15T01:23:56.277Z,0
2016-06-15T01:24:56.311Z,0
2016-06-15T01:25:56.439Z,0
2016-06-15T01:26:56.458Z,0
2016-06-15T01:27:56.446Z,0
2016-06-15T01:28:56.526Z,0
2016-06-15T01:29:56.577Z,0
2016-06-15T01:30:56.564Z,0
2016-06-15T01:31:56.583Z,0
2016-06-15T01:32:56.679Z,0
2016-06-15T01:33:56.745Z,0
2016-06-15T01:34:56.966Z,0
2016-06-15T01:35:56.611Z,0
2016-06-15T01:36:56.832Z,0
2016-06-15T01:37:56.882Z,0
2016-06-15T01:38:56.870Z,0
2016-06-15T01:39:56.935Z,0
2016-06-15T01:40:57.016Z,0
2016-06-15T01:41:57.004Z,0
2016-06-15T01:42:56.882Z,0
2016-06-15T01:43:57.104Z,0
2016-06-15T01:44:57.170Z,0
2016-06-15T01:45:57.172Z,0
2016-06-15T01:46:57.238Z,0
2016-06-15T01:47:57.303Z,0
2016-06-15T01:48:57.354Z,0
2016-06-15T01:49:57.435Z,0
2016-06-15T01:50:57.391Z,0
2016-06-15T01:51:57.441Z,0
2016-06-15T01:52:57.460Z,0
2016-06-15T01:53:57.478Z,0
2016-06-15T01:54:57.544Z,0
2016-06-15T01:55:57.609Z,0
2016-06-15T01:56:57.628Z,0
2016-06-15T01:57:57.647Z,0
2016-06-15T01:58:57.728Z,0
2016-06-15T01:59:57.779Z,0
2016-06-15T02:00:57.782Z,0
2016-06-15T02:01:57.816Z,0
2016-06-15T02:02:57.913Z,0
2016-06-15T02:03:57.931Z,0
2016-06-15T02:04:57.778Z,0
2016-06-15T02:05:58.031Z,0
2016-06-15T02:06:58.081Z,0
2016-06-15T02:07:58.053Z,0
2016-06-15T02:08:58.102Z,0
2016-06-15T02:09:58.184Z,0
2016-06-15T02:10:58.218Z,0
2016-06-15T02:11:58.222Z,0
2016-06-15T02:12:58.256Z,0
2016-06-15T02:13:58.337Z,0
2016-06-15T02:14:58.200Z,0
2016-06-15T02:15:58.390Z,0
2016-06-15T02:16:58.440Z,0
2016-06-15T02:17:58.505Z,0
2016-06-15T02:18:58.508Z,0
2016-06-15T02:19:58.543Z,0
2016-06-15T02:20:58.483Z,0
2016-06-15T02:21:58.642Z,0
2016-06-15T02:22:58.662Z,0
2016-06-15T02:23:58.711Z,0
2016-06-15T02:25:00.356Z,0
2016-06-15T02:25:58.842Z,0
2016-06-15T02:26:58.829Z,0
2016-06-15T02:27:58.895Z,0
2016-06-15T02:28:58.993Z,0
2016-06-15T02:29:58.963Z,0
2016-06-15T02:30:58.983Z,0
2016-06-15T02:31:59.047Z,0
2016-06-15T02:32:59.083Z,0
2016-06-15T02:33:59.101Z,0
2016-06-15T02:34:59.167Z,0
2016-06-15T02:35:59.310Z,0
2016-06-15T02:36:59.298Z,0
2016-06-15T02:37:59.301Z,0
2016-06-15T02:38:59.351Z,0
2016-06-15T02:39:59.385Z,0
2016-06-15T02:40:59.419Z,0
2016-06-15T02:41:59.454Z,0
2016-06-15T02:42:59.488Z,0
2016-06-15T02:43:59.554Z,0
2016-06-15T02:44:59.557Z,0
2016-06-15T02:45:59.591Z,0
2016-06-15T02:46:59.673Z,0
2016-06-15T02:47:59.535Z,0
2016-06-15T02:48:59.741Z,0
2016-06-15T02:49:59.775Z,0
2016-06-15T02:50:59.857Z,5
2016-06-15T02:51:59.875Z,5
2016-06-15T02:53:00.020Z,5
2016-06-15T02:53:59.944Z,5
2016-06-15T02:54:59.963Z,5
2016-06-15T02:56:00.013Z,5
2016-06-15T02:56:59.954Z,10
2016-06-15T02:58:00.159Z,10
2016-06-15T02:59:00.038Z,10
2016-06-15T03:00:00.165Z,10
2016-06-15T03:01:00.216Z,10
2016-06-15T03:02:00.312Z,10
2016-06-15T03:03:00.285Z,10
2016-06-15T03:04:00.334Z,10
2016-06-15T03:05:00.399Z,10
2016-06-15T03:06:01.918Z,10
2016-06-15T03:07:00.453Z,10
2016-06-15T03:08:00.503Z,10
2016-06-15T03:09:00.584Z,10
2016-06-15T03:10:00.603Z,10
2016-06-15T03:11:00.605Z,10
2016-06-15T03:12:00.515Z,15
2016-06-15T03:13:00.753Z,15
2016-06-15T03:14:00.740Z,15
2016-06-15T03:15:00.774Z,15
2016-06-15T03:16:00.855Z,15
2016-06-15T03:17:00.890Z,15
2016-06-15T03:18:00.894Z,15
2016-06-15T03:19:00.942Z,15
2016-06-15T03:20:01.008Z,15
2016-06-15T03:21:01.495Z,15
2016-06-15T03:22:01.061Z,15
2016-06-15T03:23:01.126Z,15
2016-06-15T03:24:01.162Z,15
2016-06-15T03:25:01.164Z,15
2016-06-15T03:26:01.230Z,15
2016-06-15T03:27:01.311Z,15
2016-06-15T03:28:01.345Z,20
2016-06-15T03:29:01.333Z,20
2016-06-15T03:30:01.414Z,20
2016-06-15T03:31:01.464Z,25
2016-06-15T03:32:01.482Z,25
2016-06-15T03:33:01.501Z,25
2016-06-15T03:34:01.567Z,25
2016-06-15T03:35:01.633Z,25
2016-06-15T03:36:01.213Z,30
2016-06-15T03:37:01.670Z,30
2016-06-15T03:38:01.783Z,35
2016-06-15T03:39:01.786Z,40
2016-06-15T03:40:01.711Z,45
2016-06-15T03:41:01.839Z,50
2016-06-15T03:42:01.951Z,55
2016-06-15T03:43:01.923Z,55
2016-06-15T03:44:01.973Z,60
2016-06-15T03:45:01.866Z,60
2016-06-15T03:46:02.058Z,60
2016-06-15T03:47:02.075Z,60
2016-06-15T03:48:02.142Z,65
2016-06-15T03:49:02.191Z,65
2016-06-15T03:50:02.210Z,65
2016-06-15T03:51:01.962Z,65
2016-06-15T03:52:02.341Z,65
2016-06-15T03:53:02.375Z,65
2016-06-15T03:54:02.363Z,70
2016-06-15T03:55:02.396Z,70
2016-06-15T03:56:02.447Z,70
2016-06-15T03:57:02.481Z,70
2016-06-15T03:58:02.531Z,70
2016-06-15T03:59:02.598Z,70
2016-06-15T04:00:02.631Z,75
2016-06-15T04:01:02.634Z,75
2016-06-15T04:02:02.716Z,75
2016-06-15T04:03:02.749Z,80
2016-06-15T04:04:02.769Z,80
2016-06-15T04:05:02.802Z,80
2016-06-15T04:06:02.634Z,80
2016-06-15T04:07:02.965Z,80
2016-06-15T04:08:02.922Z,80
2016-06-15T04:09:02.971Z,80
2016-06-15T04:10:03.084Z,80
2016-06-15T04:11:03.102Z,80
2016-06-15T04:12:03.090Z,80
2016-06-15T04:13:03.921Z,80
2016-06-15T04:14:03.174Z,80
2016-06-15T04:15:03.193Z,80
2016-06-15T04:16:03.243Z,80
2016-06-15T04:17:03.324Z,75
2016-06-15T04:18:04.031Z,75
2016-06-15T04:19:03.393Z,75
2016-06-15T04:20:03.412Z,75
2016-06-15T04:21:03.508Z,75
2016-06-15T04:22:03.496Z,80
2016-06-15T04:23:03.530Z,80
2016-06-15T04:24:04.205Z,80
2016-06-15T04:25:03.646Z,80
2016-06-15T04:26:03.508Z,85
2016-06-15T04:27:02.996Z,85
2016-06-15T04:28:05.420Z,85
2016-06-15T04:29:03.908Z,85
2016-06-15T04:30:03.818Z,80
2016-06-15T04:31:03.899Z,80
2016-06-15T04:32:04.464Z,80
2016-06-15T04:33:04.639Z,80
2016-06-15T04:34:03.970Z,80
2016-06-15T04:35:04.661Z,85
2016-06-15T04:36:04.929Z,85
2016-06-15T04:37:04.729Z,90
2016-06-15T04:38:04.451Z,85
2016-06-15T04:39:04.204Z,90
2016-06-15T04:40:04.223Z,90
2016-06-15T04:41:04.258Z,90
2016-06-15T04:42:04.182Z,85
2016-06-15T04:43:04.357Z,85
2016-06-15T04:44:04.391Z,85
2016-06-15T04:45:04.488Z,85
2016-06-15T04:46:04.475Z,90
2016-06-15T04:47:04.510Z,95
2016-06-15T04:48:04.544Z,110
2016-06-15T04:49:04.688Z,120
2016-06-15T04:50:04.707Z,130
2016-06-15T04:51:05.350Z,135
2016-06-15T04:52:04.713Z,145
2016-06-15T04:53:04.763Z,150
2016-06-15T04:54:04.797Z,160
2016-06-15T04:55:04.831Z,170
2016-06-15T04:56:04.912Z,175
2016-06-15T04:57:04.962Z,185
2016-06-15T04:58:04.951Z,195
2016-06-15T04:59:04.999Z,195
2016-06-15T05:00:05.082Z,195
2016-06-15T05:01:05.115Z,190
2016-06-15T05:02:05.572Z,185
2016-06-15T05:03:05.278Z,180
2016-06-15T05:04:05.312Z,170
2016-06-15T05:05:05.284Z,160
2016-06-15T05:06:06.568Z,145
2016-06-15T05:07:05.212Z,135
2016-06-15T05:08:05.434Z,130
2016-06-15T05:09:05.422Z,120
2016-06-15T05:10:05.455Z,115
2016-06-15T05:11:05.537Z,110
2016-06-15T05:12:05.555Z,105
2016-06-15T05:13:05.575Z,95
2016-06-15T05:14:05.609Z,85
2016-06-15T05:15:05.721Z,75
2016-06-15T05:16:05.724Z,70
2016-06-15T05:17:05.727Z,70
2016-06-15T05:18:05.871Z,55
2016-06-15T05:19:05.890Z,55
2016-06-15T05:20:05.878Z,55
2016-06-15T05:21:06.817Z,55
2016-06-15T05:22:05.946Z,55
2016-06-15T05:23:06.245Z,55
2016-06-15T05:24:06.046Z,55
2016-06-15T05:25:06.111Z,55
2016-06-15T05:26:06.130Z,55
2016-06-15T05:27:06.179Z,55
2016-06-15T05:28:06.183Z,55
2016-06-15T05:29:06.311Z,55
2016-06-15T05:30:07.127Z,55
2016-06-15T05:31:06.333Z,55
2016-06-15T05:32:06.398Z,50
2016-06-15T05:33:06.433Z,55
2016-06-15T05:34:06.295Z,55
2016-06-15T05:35:06.485Z,55
2016-06-15T05:36:07.114Z,60
2016-06-15T05:37:06.741Z,65
2016-06-15T05:38:06.619Z,65
2016-06-15T05:39:06.638Z,65
2016-06-15T05:40:06.672Z,70
2016-06-15T05:41:06.863Z,75
2016-06-15T05:42:06.757Z,75
2016-06-15T05:43:06.807Z,75
2016-06-15T05:44:06.731Z,80
2016-06-15T05:45:06.907Z,85
2016-06-15T05:46:07.176Z,90
2016-06-15T05:47:07.023Z,95
2016-06-15T05:48:07.088Z,100
2016-06-15T05:49:07.092Z,105
2016-06-15T05:50:07.172Z,105
2016-06-15T05:51:07.800Z,110
2016-06-15T05:52:07.178Z,115
2016-06-15T05:53:07.104Z,120
2016-06-15T05:54:07.122Z,125
2016-06-15T05:55:07.329Z,130
2016-06-15T05:56:07.409Z,135
2016-06-15T05:57:08.944Z,140
2016-06-15T05:58:07.713Z,145
2016-06-15T05:59:07.481Z,145
2016-06-15T06:00:07.703Z,145
2016-06-15T06:01:07.644Z,145
2016-06-15T06:02:07.615Z,145
2016-06-15T06:03:07.932Z,145
2016-06-15T06:04:07.809Z,140
2016-06-15T06:05:07.563Z,145
2016-06-15T06:06:08.346Z,145
2016-06-15T06:07:08.458Z,145
2016-06-15T06:08:07.900Z,140
2016-06-15T06:09:07.887Z,135
2016-06-15T06:10:07.921Z,130
2016-06-15T06:11:08.300Z,130
2016-06-15T06:12:08.084Z,140
2016-06-15T06:13:08.352Z,150
2016-06-15T06:14:08.294Z,150
2016-06-15T06:15:08.155Z,145
2016-06-15T06:16:08.722Z,135
2016-06-15T06:17:09.021Z,130
2016-06-15T06:18:09.634Z,130
2016-06-15T06:19:08.386Z,130
2016-06-15T06:20:08.374Z,130
2016-06-15T06:21:08.737Z,125
2016-06-15T06:22:09.443Z,125
2016-06-15T06:23:08.962Z,120
2016-06-15T06:24:09.371Z,115
2016-06-15T06:25:08.530Z,110
2016-06-15T06:26:09.252Z,100
2016-06-15T06:27:08.630Z,100
2016-06-15T06:28:09.180Z,95
2016-06-15T06:29:09.558Z,90
2016-06-15T06:30:10.468Z,90
2016-06-15T06:31:11.704Z,90
2016-06-15T06:32:09.474Z,95
2016-06-15T06:33:09.226Z,100
2016-06-15T06:34:09.355Z,105
2016-06-15T06:35:09.233Z,110
2016-06-15T06:36:10.127Z,115
2016-06-15T06:37:09.723Z,120
2016-06-15T06:38:09.194Z,120
2016-06-15T06:39:09.417Z,120
2016-06-15T06:40:09.842Z,120
2016-06-15T06:41:09.173Z,120
2016-06-15T06:42:09.316Z,120
2016-06-15T06:43:09.288Z,115
2016-06-15T06:44:09.416Z,115
2016-06-15T06:45:10.060Z,120
2016-06-15T06:46:10.095Z,120
2016-06-15T06:47:09.941Z,125
2016-06-15T06:48:09.554Z,125
2016-06-15T06:49:10.400Z,135
2016-06-15T06:50:09.966Z,130
2016-06-15T06:51:10.798Z,130
2016-06-15T06:52:10.801Z,130
2016-06-15T06:53:09.757Z,130
2016-06-15T06:54:11.041Z,130
2016-06-15T06:55:10.575Z,130
2016-06-15T06:56:10.751Z,130
2016-06-15T06:57:09.878Z,130
2016-06-15T06:58:10.101Z,130
2016-06-15T06:59:09.947Z,130
2016-06-15T07:00:10.951Z,135
2016-06-15T07:01:10.125Z,135
2016-06-15T07:02:10.050Z,135
2016-06-15T07:03:10.085Z,135
2016-06-15T07:04:10.494Z,140
2016-06-15T07:05:10.309Z,140
2016-06-15T07:06:12.140Z,145
2016-06-15T07:07:10.534Z,145
2016-06-15T07:08:10.303Z,150
2016-06-15T07:09:10.462Z,150
2016-06-15T07:10:11.777Z,150
2016-06-15T07:11:12.015Z,145
2016-06-15T07:12:11.941Z,145
2016-06-15T07:13:11.318Z,140
2016-06-15T07:14:10.525Z,140
2016-06-15T07:15:10.636Z,140
2016-06-15T07:16:10.671Z,140
2016-06-15T07:17:10.643Z,140
2016-06-15T07:18:18.868Z,135
2016-06-15T07:19:17.402Z,135
2016-06-15T07:20:10.793Z,130
2016-06-15T07:21:10.827Z,130
2016-06-15T07:22:11.269Z,125
2016-06-15T07:23:10.911Z,120
2016-06-15T07:24:10.977Z,120
2016-06-15T07:25:10.980Z,120
2016-06-15T07:26:11.031Z,120
2016-06-15T07:27:11.095Z,130
2016-06-15T07:28:11.099Z,135
2016-06-15T07:29:11.149Z,140
2016-06-15T07:30:11.214Z,140
2016-06-15T07:31:11.280Z,140
2016-06-15T07:32:11.283Z,140
2016-06-15T07:33:11.442Z,145
2016-06-15T07:34:11.383Z,145
2016-06-15T07:35:11.308Z,150
2016-06-15T07:36:11.686Z,150
2016-06-15T07:37:11.657Z,150
2016-06-15T07:38:11.645Z,150
2016-06-15T07:39:11.570Z,150
2016-06-15T07:40:11.604Z,150
2016-06-15T07:41:11.702Z,150
2016-06-15T07:42:11.689Z,150
2016-06-15T07:43:11.816Z,150
2016-06-15T07:44:12.257Z,155
2016-06-15T07:45:11.792Z,155
2016-06-15T07:46:11.717Z,155
2016-06-15T07:47:12.782Z,155
2016-06-15T07:48:12.910Z,155
2016-06-15T07:49:12.038Z,155
2016-06-15T07:50:12.025Z,150
2016-06-15T07:51:13.700Z,150
2016-06-15T07:52:13.656Z,150
2016-06-15T07:53:12.270Z,145
2016-06-15T07:54:12.178Z,145
2016-06-15T07:55:13.837Z,145
2016-06-15T07:56:12.404Z,145
2016-06-15T07:57:12.297Z,145
2016-06-15T07:58:12.332Z,145
2016-06-15T07:59:12.427Z,150
2016-06-15T08:00:12.463Z,150
2016-06-15T08:01:12.497Z,155
2016-06-15T08:02:12.531Z,155
2016-06-15T08:03:12.565Z,155
2016-06-15T08:04:12.584Z,155
2016-06-15T08:05:12.634Z,155
2016-06-15T08:06:12.715Z,150
2016-06-15T08:07:13.407Z,150
2016-06-15T08:08:12.768Z,150
2016-06-15T08:09:13.334Z,150
2016-06-15T08:10:12.869Z,150
2016-06-15T08:11:12.918Z,150
2016-06-15T08:12:12.937Z,155
2016-06-15T08:13:13.314Z,155
2016-06-15T08:14:13.084Z,160
2016-06-15T08:15:13.384Z,160
2016-06-15T08:16:13.105Z,160
2016-06-15T08:17:13.156Z,160
2016-06-15T08:18:13.252Z,165
2016-06-15T08:19:13.224Z,165
2016-06-15T08:20:13.258Z,170
2016-06-15T08:21:13.230Z,175
2016-06-15T08:22:14.140Z,175
2016-06-15T08:23:15.017Z,180
2016-06-15T08:24:14.037Z,185
2016-06-15T08:25:13.524Z,190
2016-06-15T08:26:13.730Z,195
2016-06-15T08:27:13.405Z,200
2016-06-15T08:28:14.189Z,205
2016-06-15T08:29:13.692Z,205
2016-06-15T08:30:14.211Z,210
2016-06-15T08:31:13.730Z,215
2016-06-15T08:32:13.764Z,220
2016-06-15T08:33:13.815Z,220
2016-06-15T08:34:13.848Z,225
2016-06-15T08:35:13.914Z,225
2016-06-15T08:36:13.933Z,225
2016-06-15T08:37:14.561Z,225
2016-06-15T08:38:13.986Z,225
2016-06-15T08:39:14.175Z,225
2016-06-15T08:40:14.117Z,225
2016-06-15T08:41:14.136Z,220
2016-06-15T08:42:13.795Z,220
2016-06-15T08:43:14.282Z,220
2016-06-15T08:44:14.238Z,215
2016-06-15T08:45:14.288Z,215
2016-06-15T08:46:14.402Z,210
2016-06-15T08:47:14.419Z,210
2016-06-15T08:48:14.454Z,210
2016-06-15T08:49:14.456Z,215
2016-06-15T08:50:14.256Z,215
2016-06-15T08:51:14.557Z,220
2016-06-15T08:52:14.919Z,215
2016-06-15T08:53:14.657Z,220
2016-06-15T08:54:14.659Z,225
2016-06-15T08:55:14.710Z,235
2016-06-15T08:56:14.775Z,240
2016-06-15T08:57:14.841Z,245
2016-06-15T08:58:14.844Z,250
2016-06-15T08:59:14.847Z,245
2016-06-15T09:00:22.103Z,245
2016-06-15T09:01:15.009Z,245
2016-06-15T09:02:15.029Z,245
2016-06-15T09:03:15.094Z,245
2016-06-15T09:04:15.644Z,250
2016-06-15T09:05:15.413Z,255
2016-06-15T09:06:15.166Z,265
2016-06-15T09:07:16.200Z,280
2016-06-15T09:08:15.562Z,290
2016-06-15T09:09:15.723Z,305
2016-06-15T09:10:16.521Z,320
2016-06-15T09:11:15.634Z,335
2016-06-15T09:12:15.607Z,345
2016-06-15T09:13:25.349Z,355
2016-06-15T09:14:16.091Z,360
2016-06-15T09:15:15.623Z,360
2016-06-15T09:16:16.768Z,360
2016-06-15T09:17:15.646Z,360
2016-06-15T09:18:15.728Z,360
2016-06-15T09:19:16.433Z,365
2016-06-15T09:20:15.905Z,365
2016-06-15T09:21:15.831Z,370
2016-06-15T09:22:16.223Z,375
2016-06-15T09:23:15.931Z,380
2016-06-15T09:24:18.026Z,385
2016-06-15T09:25:19.687Z,390
2016-06-15T09:26:18.032Z,385
2016-06-15T09:27:16.099Z,385
2016-06-15T09:28:16.352Z,385
2016-06-15T09:29:15.896Z,375
2016-06-15T09:30:16.758Z,370
2016-06-15T09:31:18.730Z,365
2016-06-15T09:32:16.297Z,370
2016-06-15T09:33:17.706Z,380
2016-06-15T09:34:17.739Z,380
2016-06-15T09:35:17.227Z,385
2016-06-15T09:36:18.512Z,390
2016-06-15T09:37:18.373Z,390
2016-06-15T09:38:17.282Z,395
2016-06-15T09:39:18.910Z,385
2016-06-15T09:40:17.196Z,375
2016-06-15T09:41:18.745Z,370
2016-06-15T09:42:19.639Z,365
2016-06-15T09:43:19.330Z,365
2016-06-15T09:44:18.317Z,355
2016-06-15T09:45:22.571Z,355
2016-06-15T09:46:24.792Z,350
2016-06-15T09:47:25.404Z,345
2016-06-15T09:48:18.032Z,335
2016-06-15T09:49:17.989Z,345
2016-06-15T09:50:17.413Z,350
2016-06-15T09:51:19.011Z,350
2016-06-15T09:52:23.217Z,350
2016-06-15T09:53:22.329Z,350
2016-06-15T09:54:19.581Z,355
2016-06-15T09:55:19.757Z,365
2016-06-15T09:56:18.620Z,375
2016-06-15T09:57:19.310Z,385
2016-06-15T09:58:17.751Z,395
2016-06-15T09:59:17.489Z,415
2016-06-15T10:00:18.303Z,445
2016-06-15T10:01:17.572Z,450
2016-06-15T10:02:17.559Z,460
2016-06-15T10:03:17.969Z,470
2016-06-15T10:04:18.084Z,480
2016-06-15T10:05:18.659Z,485
2016-06-15T10:06:20.030Z,495
2016-06-15T10:07:18.808Z,495
2016-06-15T10:08:18.413Z,510
2016-06-15T10:09:18.209Z,530
2016-06-15T10:10:19.977Z,555
2016-06-15T10:11:22.181Z,570
2016-06-15T10:12:19.371Z,585
2016-06-15T10:13:18.904Z,600
2016-06-15T10:14:18.370Z,610
2016-06-15T10:15:23.097Z,610
2016-06-15T10:16:35.043Z,605
2016-06-15T10:17:22.614Z,595
2016-06-15T10:18:32.653Z,585
2016-06-15T10:19:21.832Z,575
2016-06-15T10:20:19.447Z,570
2016-06-15T10:21:19.655Z,540
2016-06-15T10:22:23.597Z,535
2016-06-15T10:23:22.055Z,540
2016-06-15T10:24:20.653Z,560
2016-06-15T10:25:20.345Z,585
2016-06-15T10:26:19.192Z,630
2016-06-15T10:27:21.241Z,640
2016-06-15T10:28:21.042Z,680
2016-06-15T10:29:20.234Z,770
2016-06-15T10:30:19.534Z,810
2016-06-15T10:31:22.052Z,865
2016-06-15T10:32:24.712Z,835
2016-06-15T10:33:19.544Z,775
2016-06-15T10:34:20.188Z,735
2016-06-15T10:35:22.879Z,745
2016-06-15T10:36:43.647Z,695
2016-06-15T10:37:43.292Z,700
2016-06-15T10:38:48.466Z,695
2016-06-15T10:40:00.707Z,675
2016-06-15T10:41:07.163Z,655
2016-06-15T10:42:18.104Z,615
2016-06-15T10:43:07.544Z,580
2016-06-15T10:43:46.529Z,565
2016-06-15T10:44:46.469Z,500
2016-06-15T10:46:22.132Z,560
2016-06-15T10:47:24.103Z,595
2016-06-15T10:49:07.356Z,630
2016-06-15T10:50:06.220Z,650
2016-06-15T10:51:18.366Z,685
2016-06-15T10:52:44.963Z,680
2016-06-15T10:53:53.419Z,695
2016-06-15T10:55:21.363Z,730
2016-06-15T10:55:59.628Z,770
2016-06-15T10:56:37.616Z,785
2016-06-15T10:57:37.962Z,780
2016-06-15T10:58:37.653Z,745
2016-06-15T10:59:37.766Z,790
2016-06-15T11:00:37.785Z,880
2016-06-15T11:01:37.803Z,880
2016-06-15T11:02:37.838Z,810
2016-06-15T11:03:38.169Z,825
2016-06-15T11:04:38.047Z,840
2016-06-15T11:05:37.987Z,880
2016-06-15T11:06:39.898Z,870
2016-06-15T11:07:39.165Z,905
2016-06-15T11:08:38.153Z,955
2016-06-15T11:09:38.203Z,1030
2016-06-15T11:10:38.221Z,975
2016-06-15T11:11:38.678Z,885
2016-06-15T11:12:38.603Z,905
2016-06-15T11:13:38.606Z,950
2016-06-15T11:14:38.405Z,940
2016-06-15T11:15:38.471Z,870
2016-06-15T11:16:38.537Z,825
2016-06-15T11:17:38.540Z,840
2016-06-15T11:18:38.575Z,1045
2016-06-15T11:19:38.687Z,1180
2016-06-15T11:20:38.722Z,1715
2016-06-15T11:21:38.725Z,850
2016-06-15T11:22:38.696Z,905
2016-06-15T11:23:39.402Z,970
2016-06-15T11:24:38.890Z,1520
2016-06-15T11:25:38.892Z,1800
2016-06-15T11:26:38.802Z,1995
2016-06-15T11:27:39.040Z,1940
2016-06-15T11:28:39.089Z,2060
2016-06-15T11:29:39.124Z,1900
2016-06-15T11:30:39.142Z,1875
2016-06-15T11:31:39.255Z,1745
2016-06-15T11:32:39.289Z,1785
2016-06-15T11:33:39.339Z,1725
2016-06-15T11:34:39.483Z,1095
2016-06-15T11:35:43.940Z,1105
2016-06-15T11:36:39.568Z,1100
2016-06-15T11:37:39.367Z,830
2016-06-15T11:38:39.620Z,985
2016-06-15T11:39:39.607Z,970
2016-06-15T11:40:39.485Z,870
2016-06-15T11:41:40.786Z,870
2016-06-15T11:42:39.726Z,885
2016-06-15T11:43:39.761Z,935
2016-06-15T11:44:39.889Z,1090
2016-06-15T11:45:39.813Z,1035
2016-06-15T11:46:39.974Z,995
2016-06-15T11:47:40.038Z,970
2016-06-15T11:48:40.104Z,950
2016-06-15T11:49:39.983Z,885
2016-06-15T11:50:40.125Z,905
2016-06-15T11:51:42.051Z,955
2016-06-15T11:52:41.101Z,1015
2016-06-15T11:53:40.338Z,1090
2016-06-15T11:54:40.310Z,1105
2016-06-15T11:55:40.437Z,1290
2016-06-15T11:56:40.488Z,1165
2016-06-15T11:57:40.460Z,1250
2016-06-15T11:58:40.525Z,2330
2016-06-15T11:59:40.670Z,2410
2016-06-15T12:00:41.234Z,2310
2016-06-15T12:01:40.645Z,2230
2016-06-15T12:02:40.710Z,2035
2016-06-15T12:03:40.776Z,1860
2016-06-15T12:04:40.810Z,1990
2016-06-15T12:05:40.843Z,1845
2016-06-15T12:06:40.878Z,2000
2016-06-15T12:07:42.302Z,2130
2016-06-15T12:08:41.478Z,2275
2016-06-15T12:09:41.044Z,2160
2016-06-15T12:10:40.922Z,1555
2016-06-15T12:11:40.893Z,1050
2016-06-15T12:12:41.115Z,1680
2016-06-15T12:13:41.556Z,2245
2016-06-15T12:14:43.185Z,2060
2016-06-15T12:15:41.375Z,2085
2016-06-15T12:16:46.690Z,2155
2016-06-15T12:17:41.396Z,1565
2016-06-15T12:18:41.509Z,1080
2016-06-15T12:19:41.575Z,940
2016-06-15T12:20:41.468Z,1035
2016-06-15T12:21:41.534Z,995
2016-06-15T12:22:41.973Z,1325
2016-06-15T12:23:43.134Z,1755
2016-06-15T12:24:43.480Z,1545
2016-06-15T12:25:41.890Z,2030
2016-06-15T12:26:43.236Z,2020
2016-06-15T12:27:42.036Z,1835
2016-06-15T12:28:42.180Z,1990
2016-06-15T12:29:42.106Z,1145
2016-06-15T12:30:42.140Z,825
2016-06-15T12:31:45.612Z,900
2016-06-15T12:32:42.301Z,1015
2016-06-15T12:33:42.320Z,820
2016-06-15T12:34:42.339Z,1460
2016-06-15T12:35:43.171Z,815
2016-06-15T12:36:42.673Z,990
2016-06-15T12:37:42.833Z,885
2016-06-15T12:38:42.726Z,925
2016-06-15T12:39:42.604Z,1390
2016-06-15T12:40:43.452Z,1290
2016-06-15T12:41:42.751Z,1170
2016-06-15T12:42:42.863Z,2000
2016-06-15T12:43:42.851Z,1630
2016-06-15T12:44:42.855Z,1685
2016-06-15T12:45:42.889Z,1845
2016-06-15T12:46:42.939Z,1690
2016-06-15T12:47:43.036Z,1410
2016-06-15T12:48:44.631Z,1555
2016-06-15T12:49:44.073Z,1445
2016-06-15T12:50:43.154Z,1465
2016-06-15T12:51:43.329Z,1345
2016-06-15T12:52:43.457Z,1330
2016-06-15T12:53:43.351Z,1250
2016-06-15T12:54:43.698Z,1305
2016-06-15T12:55:43.435Z,850
2016-06-15T12:56:43.516Z,820
2016-06-15T12:57:43.503Z,795
2016-06-15T12:58:43.617Z,1090
2016-06-15T12:59:43.604Z,680
2016-06-15T13:00:43.966Z,245
2016-06-15T13:32:29.752Z,1005
2016-06-15T13:33:29.552Z,1045
2016-06-15T13:34:29.571Z,1285
2016-06-15T13:35:29.542Z,2045
2016-06-15T13:36:29.452Z,1230
2016-06-15T13:37:30.174Z,1925
2016-06-15T13:38:29.771Z,2055
2016-06-15T13:39:29.976Z,1420
2016-06-15T13:40:29.636Z,2330
2016-06-15T13:41:29.858Z,2370
2016-06-15T13:42:30.017Z,2015
2016-06-15T13:43:30.020Z,2030
2016-06-15T13:44:30.024Z,2000
2016-06-15T13:45:30.229Z,2165
2016-06-15T13:46:30.154Z,2010
2016-06-15T13:47:30.143Z,2070
2016-06-15T13:48:30.192Z,1925
2016-06-15T13:49:30.242Z,1810
2016-06-15T13:50:30.292Z,1825
2016-06-15T13:51:30.404Z,1830
2016-06-15T13:52:31.533Z,1645
2016-06-15T13:53:31.442Z,1500
2016-06-15T13:54:30.570Z,1535
2016-06-15T13:55:30.620Z,1580
2016-06-15T13:56:30.607Z,1605
2016-06-15T13:57:30.657Z,1640
2016-06-15T13:58:30.769Z,1480
2016-06-15T13:59:30.788Z,1490
2016-06-15T14:00:30.822Z,1400
2016-06-15T14:01:30.888Z,1310
2016-06-15T14:02:30.985Z,1300
2016-06-15T14:03:31.050Z,1365
2016-06-15T14:04:31.070Z,1330
2016-06-15T14:05:31.104Z,1335
2016-06-15T14:06:31.154Z,1400
2016-06-15T14:07:33.016Z,1375
2016-06-15T14:08:32.628Z,1360
2016-06-15T14:09:31.335Z,1385
2016-06-15T14:10:31.416Z,1675
2016-06-15T14:11:31.512Z,1610
2016-06-15T14:12:31.470Z,1855
2016-06-15T14:13:31.581Z,2095
2016-06-15T14:14:31.632Z,2365
2016-06-15T14:15:31.463Z,2505
2016-06-15T14:16:31.732Z,2600
2016-06-15T14:17:32.281Z,2595
2016-06-15T14:18:31.784Z,2535
2016-06-15T14:19:31.850Z,2450
2016-06-15T14:20:31.931Z,2350
2016-06-15T14:21:32.012Z,2520
2016-06-15T14:22:32.031Z,2545
2016-06-15T14:23:32.565Z,2530
2016-06-15T14:24:32.177Z,2535
2016-06-15T14:25:32.213Z,2390
2016-06-15T14:26:32.324Z,2490
2016-06-15T14:27:32.374Z,2440
2016-06-15T14:28:32.409Z,2325
2016-06-15T14:29:32.193Z,2285
2016-06-15T14:30:32.305Z,2420
2016-06-15T14:31:32.559Z,2510
2016-06-15T14:32:32.608Z,2435